This is the latest recevied weather packets stored in our database for station/object K0JRF-13. If no packets are shown the sender has not sent any weather packets the latest 10 day(s).
| Time | Temp. | Humidity | Pressure | Rain* | Wind** | Luminosity | Snow |
|---|---|---|---|---|---|---|---|
| 1787783848 | 29.44° C | 50% | 1013.9 hPa | - | - | - | - |
| 1787783247 | 30° C | 49% | 1013.9 hPa | - | - | - | - |
| 1787782647 | 30.56° C | 45% | 1013.9 hPa | - | - | - | - |
| 1787782047 | 31.11° C | 48% | 1014.2 hPa | - | - | - | - |
| 1787781447 | 31.67° C | 48% | 1014.2 hPa | - | - | - | - |
| 1787780847 | 33.33° C | 47% | 1014.2 hPa | - | - | - | - |
| 1787780247 | 36.11° C | 48% | 1014.2 hPa | - | - | - | - |
| 1787779647 | 37.22° C | 48% | 1014.2 hPa | - | - | - | - |
| 1787779048 | 36.67° C | 48% | 1014.2 hPa | - | - | - | - |
| 1787778448 | 36.11° C | 48% | 1014.6 hPa | - | - | - | - |
| 1787777847 | 34.44° C | 49% | 1014.2 hPa | - | - | - | - |
| 1787777248 | 30.56° C | 54% | 1014.6 hPa | - | - | - | - |
| 1787776648 | 29.44° C | 53% | 1014.9 hPa | - | - | - | - |
| 1787776048 | 29.44° C | 53% | 1014.9 hPa | - | - | - | - |
| 1787775447 | 30.56° C | 49% | 1014.9 hPa | - | - | - | - |
| 1787774847 | 30.56° C | 49% | 1015.2 hPa | - | - | - | - |
| 1787774247 | 31.11° C | 48% | 1014.6 hPa | - | - | - | - |
| 1787773648 | 30.56° C | 47% | 1014.9 hPa | - | - | - | - |
| 1787773048 | 30.56° C | 46% | 1014.9 hPa | - | - | - | - |
| 1787772448 | 31.11° C | 46% | 1015.2 hPa | - | - | - | - |
| 1787771848 | 31.67° C | 44% | 1014.9 hPa | - | - | - | - |
| 1787771248 | 31.11° C | 49% | 1015.2 hPa | - | - | - | - |
| 1787770648 | 32.78° C | 44% | 1015.2 hPa | - | - | - | - |
| 1787770048 | 32.22° C | 45% | 1015.6 hPa | - | - | - | - |
| 1787769448 | 31.67° C | 45% | 1015.9 hPa | - | - | - | - |
* Rain since midnight (hover to see other rain measurements)
** Current wind speed in m/s (hover to see current wind gust speed)